sensor_id;sensor_type;location;lat;lon;timestamp;temperature;humidity
19248;DHT22;9758;48.640;8.148;2022-07-29T00:01:38;25.90;34.40
19248;DHT22;9758;48.640;8.148;2022-07-29T00:04:05;25.90;34.50
19248;DHT22;9758;48.640;8.148;2022-07-29T00:06:33;25.80;34.40
19248;DHT22;9758;48.640;8.148;2022-07-29T00:09:00;25.80;34.50
19248;DHT22;9758;48.640;8.148;2022-07-29T00:11:26;25.70;34.50
19248;DHT22;9758;48.640;8.148;2022-07-29T00:13:53;25.60;34.60
19248;DHT22;9758;48.640;8.148;2022-07-29T00:16:20;25.60;34.60
19248;DHT22;9758;48.640;8.148;2022-07-29T00:18:47;25.50;34.70
19248;DHT22;9758;48.640;8.148;2022-07-29T00:21:13;25.50;34.80
19248;DHT22;9758;48.640;8.148;2022-07-29T00:23:42;25.40;34.80
19248;DHT22;9758;48.640;8.148;2022-07-29T00:26:08;25.40;34.80
19248;DHT22;9758;48.640;8.148;2022-07-29T00:28:35;25.40;34.90
19248;DHT22;9758;48.640;8.148;2022-07-29T00:31:02;25.30;35.00
19248;DHT22;9758;48.640;8.148;2022-07-29T00:33:29;25.30;35.00
19248;DHT22;9758;48.640;8.148;2022-07-29T00:35:56;25.30;35.10
19248;DHT22;9758;48.640;8.148;2022-07-29T00:38:22;25.20;35.10
19248;DHT22;9758;48.640;8.148;2022-07-29T00:40:50;25.20;35.10
19248;DHT22;9758;48.640;8.148;2022-07-29T00:43:17;25.20;35.20
19248;DHT22;9758;48.640;8.148;2022-07-29T00:45:44;25.10;35.30
19248;DHT22;9758;48.640;8.148;2022-07-29T00:48:11;25.00;35.30
19248;DHT22;9758;48.640;8.148;2022-07-29T00:50:38;25.00;35.30
19248;DHT22;9758;48.640;8.148;2022-07-29T00:53:06;25.00;35.40
19248;DHT22;9758;48.640;8.148;2022-07-29T00:55:33;25.00;35.40
19248;DHT22;9758;48.640;8.148;2022-07-29T00:58:02;25.00;35.50
19248;DHT22;9758;48.640;8.148;2022-07-29T01:00:29;24.90;35.50
19248;DHT22;9758;48.640;8.148;2022-07-29T01:02:57;24.90;35.60
19248;DHT22;9758;48.640;8.148;2022-07-29T01:05:26;24.80;35.60
19248;DHT22;9758;48.640;8.148;2022-07-29T01:07:55;24.80;35.70
19248;DHT22;9758;48.640;8.148;2022-07-29T01:10:23;24.80;35.70
19248;DHT22;9758;48.640;8.148;2022-07-29T01:12:52;24.70;35.70
19248;DHT22;9758;48.640;8.148;2022-07-29T01:15:22;24.70;35.80
19248;DHT22;9758;48.640;8.148;2022-07-29T01:17:56;24.60;35.80
19248;DHT22;9758;48.640;8.148;2022-07-29T01:20:31;24.60;35.90
19248;DHT22;9758;48.640;8.148;2022-07-29T01:23:11;24.50;35.90
19248;DHT22;9758;48.640;8.148;2022-07-29T01:25:50;24.50;36.10
19248;DHT22;9758;48.640;8.148;2022-07-29T01:28:49;24.40;36.10
19248;DHT22;9758;48.640;8.148;2022-07-29T01:31:22;24.30;36.40
19248;DHT22;9758;48.640;8.148;2022-07-29T01:34:05;24.30;36.20
19248;DHT22;9758;48.640;8.148;2022-07-29T01:36:35;24.20;36.30
19248;DHT22;9758;48.640;8.148;2022-07-29T01:39:07;24.20;36.30
19248;DHT22;9758;48.640;8.148;2022-07-29T01:41:37;24.10;36.30
19248;DHT22;9758;48.640;8.148;2022-07-29T01:44:13;24.10;36.40
19248;DHT22;9758;48.640;8.148;2022-07-29T01:46:44;24.10;36.50
19248;DHT22;9758;48.640;8.148;2022-07-29T01:49:17;24.00;36.50
19248;DHT22;9758;48.640;8.148;2022-07-29T01:51:49;24.00;36.60
19248;DHT22;9758;48.640;8.148;2022-07-29T01:54:20;24.00;36.60
19248;DHT22;9758;48.640;8.148;2022-07-29T01:56:49;23.90;36.60
19248;DHT22;9758;48.640;8.148;2022-07-29T01:59:20;23.90;36.70
19248;DHT22;9758;48.640;8.148;2022-07-29T02:01:52;23.80;36.60
19248;DHT22;9758;48.640;8.148;2022-07-29T02:04:20;23.80;36.70
19248;DHT22;9758;48.640;8.148;2022-07-29T02:06:49;23.80;36.80
19248;DHT22;9758;48.640;8.148;2022-07-29T02:09:17;23.80;36.80
19248;DHT22;9758;48.640;8.148;2022-07-29T02:11:49;23.70;36.80
19248;DHT22;9758;48.640;8.148;2022-07-29T02:14:20;23.70;36.90
19248;DHT22;9758;48.640;8.148;2022-07-29T02:16:50;23.70;36.90
19248;DHT22;9758;48.640;8.148;2022-07-29T02:19:20;23.70;37.60
19248;DHT22;9758;48.640;8.148;2022-07-29T02:21:48;23.70;37.00
19248;DHT22;9758;48.640;8.148;2022-07-29T02:24:18;23.60;37.10
19248;DHT22;9758;48.640;8.148;2022-07-29T02:26:46;23.60;37.10
19248;DHT22;9758;48.640;8.148;2022-07-29T02:29:15;23.60;37.10
19248;DHT22;9758;48.640;8.148;2022-07-29T02:31:46;23.60;37.20
19248;DHT22;9758;48.640;8.148;2022-07-29T02:34:15;23.60;37.20
19248;DHT22;9758;48.640;8.148;2022-07-29T02:36:43;23.60;37.20
19248;DHT22;9758;48.640;8.148;2022-07-29T02:39:12;23.50;37.20
19248;DHT22;9758;48.640;8.148;2022-07-29T02:41:42;23.50;37.30
19248;DHT22;9758;48.640;8.148;2022-07-29T02:44:12;23.50;37.40
19248;DHT22;9758;48.640;8.148;2022-07-29T02:46:48;23.40;37.40
19248;DHT22;9758;48.640;8.148;2022-07-29T02:49:29;23.40;37.50
19248;DHT22;9758;48.640;8.148;2022-07-29T02:52:01;23.30;37.50
19248;DHT22;9758;48.640;8.148;2022-07-29T02:54:33;23.30;37.60
19248;DHT22;9758;48.640;8.148;2022-07-29T02:57:05;23.30;37.60
19248;DHT22;9758;48.640;8.148;2022-07-29T02:59:34;23.20;37.60
19248;DHT22;9758;48.640;8.148;2022-07-29T03:02:05;23.20;37.70
19248;DHT22;9758;48.640;8.148;2022-07-29T03:04:32;23.10;37.70
19248;DHT22;9758;48.640;8.148;2022-07-29T03:07:01;23.10;37.80
19248;DHT22;9758;48.640;8.148;2022-07-29T03:09:28;23.10;37.90
19248;DHT22;9758;48.640;8.148;2022-07-29T03:11:56;23.00;37.90
19248;DHT22;9758;48.640;8.148;2022-07-29T03:14:23;23.00;38.00
19248;DHT22;9758;48.640;8.148;2022-07-29T03:16:51;23.00;38.00
19248;DHT22;9758;48.640;8.148;2022-07-29T03:19:19;23.00;38.00
19248;DHT22;9758;48.640;8.148;2022-07-29T03:21:47;22.90;38.00
19248;DHT22;9758;48.640;8.148;2022-07-29T03:24:30;22.90;38.10
19248;DHT22;9758;48.640;8.148;2022-07-29T03:26:58;22.90;38.30
19248;DHT22;9758;48.640;8.148;2022-07-29T03:29:25;22.90;38.20
19248;DHT22;9758;48.640;8.148;2022-07-29T03:31:52;22.90;38.30
19248;DHT22;9758;48.640;8.148;2022-07-29T03:34:20;22.80;38.30
19248;DHT22;9758;48.640;8.148;2022-07-29T03:36:48;22.80;38.30
19248;DHT22;9758;48.640;8.148;2022-07-29T03:39:18;22.80;38.40
19248;DHT22;9758;48.640;8.148;2022-07-29T03:41:49;22.80;38.40
19248;DHT22;9758;48.640;8.148;2022-07-29T03:44:16;22.80;38.40
19248;DHT22;9758;48.640;8.148;2022-07-29T03:46:44;22.80;38.50
19248;DHT22;9758;48.640;8.148;2022-07-29T03:49:14;22.80;38.50
19248;DHT22;9758;48.640;8.148;2022-07-29T03:51:42;22.80;38.60
19248;DHT22;9758;48.640;8.148;2022-07-29T03:54:09;22.80;38.60
19248;DHT22;9758;48.640;8.148;2022-07-29T03:56:39;22.80;38.60
19248;DHT22;9758;48.640;8.148;2022-07-29T03:59:07;22.70;38.60
19248;DHT22;9758;48.640;8.148;2022-07-29T04:01:35;22.70;38.60
19248;DHT22;9758;48.640;8.148;2022-07-29T04:04:02;22.70;38.70
19248;DHT22;9758;48.640;8.148;2022-07-29T04:06:38;22.70;38.70
19248;DHT22;9758;48.640;8.148;2022-07-29T04:09:06;22.70;38.80
19248;DHT22;9758;48.640;8.148;2022-07-29T04:11:34;22.70;38.80
19248;DHT22;9758;48.640;8.148;2022-07-29T04:14:01;22.70;38.80
19248;DHT22;9758;48.640;8.148;2022-07-29T04:16:27;22.70;38.90
19248;DHT22;9758;48.640;8.148;2022-07-29T04:18:54;22.70;38.80
19248;DHT22;9758;48.640;8.148;2022-07-29T04:21:21;22.70;38.90
19248;DHT22;9758;48.640;8.148;2022-07-29T04:23:48;22.70;38.90
19248;DHT22;9758;48.640;8.148;2022-07-29T04:26:17;22.70;38.90
19248;DHT22;9758;48.640;8.148;2022-07-29T04:28:44;22.80;39.00
19248;DHT22;9758;48.640;8.148;2022-07-29T04:31:12;22.80;39.00
19248;DHT22;9758;48.640;8.148;2022-07-29T04:33:39;22.80;39.00
19248;DHT22;9758;48.640;8.148;2022-07-29T04:36:06;22.80;39.00
19248;DHT22;9758;48.640;8.148;2022-07-29T04:38:33;22.80;39.00
19248;DHT22;9758;48.640;8.148;2022-07-29T04:40:59;22.80;39.00
19248;DHT22;9758;48.640;8.148;2022-07-29T04:43:27;22.80;39.00
19248;DHT22;9758;48.640;8.148;2022-07-29T04:45:54;22.90;39.00
19248;DHT22;9758;48.640;8.148;2022-07-29T04:48:21;22.90;39.00
19248;DHT22;9758;48.640;8.148;2022-07-29T04:50:48;22.90;39.00
19248;DHT22;9758;48.640;8.148;2022-07-29T04:53:14;22.90;39.00
19248;DHT22;9758;48.640;8.148;2022-07-29T04:55:41;23.00;39.10
19248;DHT22;9758;48.640;8.148;2022-07-29T04:58:08;23.00;39.00
19248;DHT22;9758;48.640;8.148;2022-07-29T05:00:36;23.00;39.00
19248;DHT22;9758;48.640;8.148;2022-07-29T05:03:03;23.10;39.00
19248;DHT22;9758;48.640;8.148;2022-07-29T05:05:30;23.10;39.00
19248;DHT22;9758;48.640;8.148;2022-07-29T05:07:57;23.10;39.00
19248;DHT22;9758;48.640;8.148;2022-07-29T05:10:24;23.20;39.10
19248;DHT22;9758;48.640;8.148;2022-07-29T05:12:51;23.20;39.10
19248;DHT22;9758;48.640;8.148;2022-07-29T05:15:17;23.20;39.20
19248;DHT22;9758;48.640;8.148;2022-07-29T05:17:45;23.20;39.20
19248;DHT22;9758;48.640;8.148;2022-07-29T05:20:12;23.20;39.20
19248;DHT22;9758;48.640;8.148;2022-07-29T05:22:39;23.20;39.20
19248;DHT22;9758;48.640;8.148;2022-07-29T05:25:06;23.20;39.30
19248;DHT22;9758;48.640;8.148;2022-07-29T05:27:37;23.20;39.30
19248;DHT22;9758;48.640;8.148;2022-07-29T05:30:05;23.20;39.30
19248;DHT22;9758;48.640;8.148;2022-07-29T05:32:32;23.30;39.40
19248;DHT22;9758;48.640;8.148;2022-07-29T05:35:00;23.30;39.40
19248;DHT22;9758;48.640;8.148;2022-07-29T05:37:27;23.30;39.40
19248;DHT22;9758;48.640;8.148;2022-07-29T05:39:54;23.30;39.50
19248;DHT22;9758;48.640;8.148;2022-07-29T05:42:21;23.30;39.50
19248;DHT22;9758;48.640;8.148;2022-07-29T05:44:47;23.30;39.50
19248;DHT22;9758;48.640;8.148;2022-07-29T05:47:14;23.40;39.60
19248;DHT22;9758;48.640;8.148;2022-07-29T05:49:41;23.40;39.60
19248;DHT22;9758;48.640;8.148;2022-07-29T05:52:09;23.40;39.60
19248;DHT22;9758;48.640;8.148;2022-07-29T05:54:36;23.50;39.70
19248;DHT22;9758;48.640;8.148;2022-07-29T05:57:03;23.60;39.70
19248;DHT22;9758;48.640;8.148;2022-07-29T05:59:31;23.60;39.60
19248;DHT22;9758;48.640;8.148;2022-07-29T06:01:57;23.60;39.60
19248;DHT22;9758;48.640;8.148;2022-07-29T06:04:24;23.60;39.60
19248;DHT22;9758;48.640;8.148;2022-07-29T06:06:51;23.70;39.70
19248;DHT22;9758;48.640;8.148;2022-07-29T06:09:19;23.70;39.70
19248;DHT22;9758;48.640;8.148;2022-07-29T06:11:46;23.80;39.80
19248;DHT22;9758;48.640;8.148;2022-07-29T06:14:13;23.80;39.80
19248;DHT22;9758;48.640;8.148;2022-07-29T06:16:39;23.90;39.80
19248;DHT22;9758;48.640;8.148;2022-07-29T06:19:06;23.90;39.80
19248;DHT22;9758;48.640;8.148;2022-07-29T06:21:33;24.00;39.80
19248;DHT22;9758;48.640;8.148;2022-07-29T06:24:00;24.00;39.80
19248;DHT22;9758;48.640;8.148;2022-07-29T06:26:28;24.10;39.80
19248;DHT22;9758;48.640;8.148;2022-07-29T06:28:55;24.10;39.80
19248;DHT22;9758;48.640;8.148;2022-07-29T06:31:22;24.20;39.90
19248;DHT22;9758;48.640;8.148;2022-07-29T06:33:48;24.30;39.90
19248;DHT22;9758;48.640;8.148;2022-07-29T06:36:15;24.40;39.80
19248;DHT22;9758;48.640;8.148;2022-07-29T06:38:42;24.50;39.70
19248;DHT22;9758;48.640;8.148;2022-07-29T06:41:09;24.60;39.70
19248;DHT22;9758;48.640;8.148;2022-07-29T06:43:40;24.80;39.60
19248;DHT22;9758;48.640;8.148;2022-07-29T06:46:09;24.80;39.50
19248;DHT22;9758;48.640;8.148;2022-07-29T06:48:36;24.90;39.50
19248;DHT22;9758;48.640;8.148;2022-07-29T06:51:06;25.00;39.40
19248;DHT22;9758;48.640;8.148;2022-07-29T06:53:34;25.00;39.40
19248;DHT22;9758;48.640;8.148;2022-07-29T06:56:02;25.00;39.40
19248;DHT22;9758;48.640;8.148;2022-07-29T06:58:30;25.00;39.40
19248;DHT22;9758;48.640;8.148;2022-07-29T07:00:58;25.10;39.50
19248;DHT22;9758;48.640;8.148;2022-07-29T07:03:27;25.10;39.60
19248;DHT22;9758;48.640;8.148;2022-07-29T07:06:00;25.10;39.50
19248;DHT22;9758;48.640;8.148;2022-07-29T07:08:27;25.10;39.60
19248;DHT22;9758;48.640;8.148;2022-07-29T07:10:54;25.10;39.60
19248;DHT22;9758;48.640;8.148;2022-07-29T07:13:22;25.20;39.60
19248;DHT22;9758;48.640;8.148;2022-07-29T07:15:49;25.20;39.50
19248;DHT22;9758;48.640;8.148;2022-07-29T07:18:18;25.30;39.50
19248;DHT22;9758;48.640;8.148;2022-07-29T07:20:45;25.40;39.60
19248;DHT22;9758;48.640;8.148;2022-07-29T07:23:12;25.40;39.40
19248;DHT22;9758;48.640;8.148;2022-07-29T07:25:39;25.50;39.50
19248;DHT22;9758;48.640;8.148;2022-07-29T07:28:07;25.50;39.40
19248;DHT22;9758;48.640;8.148;2022-07-29T07:30:34;25.60;39.50
19248;DHT22;9758;48.640;8.148;2022-07-29T07:33:01;25.70;39.50
19248;DHT22;9758;48.640;8.148;2022-07-29T07:35:29;25.80;39.50
19248;DHT22;9758;48.640;8.148;2022-07-29T07:37:56;25.80;39.40
19248;DHT22;9758;48.640;8.148;2022-07-29T07:40:23;26.00;39.50
19248;DHT22;9758;48.640;8.148;2022-07-29T07:42:50;26.10;39.50
19248;DHT22;9758;48.640;8.148;2022-07-29T07:45:16;26.20;39.40
19248;DHT22;9758;48.640;8.148;2022-07-29T07:47:43;26.30;39.20
19248;DHT22;9758;48.640;8.148;2022-07-29T07:50:11;26.50;39.30
19248;DHT22;9758;48.640;8.148;2022-07-29T07:52:48;26.60;39.30
19248;DHT22;9758;48.640;8.148;2022-07-29T07:55:16;26.70;39.10
19248;DHT22;9758;48.640;8.148;2022-07-29T07:57:43;26.80;39.00
19248;DHT22;9758;48.640;8.148;2022-07-29T08:00:11;26.90;38.90
19248;DHT22;9758;48.640;8.148;2022-07-29T08:02:39;26.90;38.90
19248;DHT22;9758;48.640;8.148;2022-07-29T08:05:08;26.90;38.80
19248;DHT22;9758;48.640;8.148;2022-07-29T08:07:35;27.00;38.90
19248;DHT22;9758;48.640;8.148;2022-07-29T08:10:04;27.00;38.90
19248;DHT22;9758;48.640;8.148;2022-07-29T08:12:31;27.10;38.90
19248;DHT22;9758;48.640;8.148;2022-07-29T08:14:58;27.10;38.80
19248;DHT22;9758;48.640;8.148;2022-07-29T08:17:25;27.10;38.80
19248;DHT22;9758;48.640;8.148;2022-07-29T08:19:52;27.10;38.90
19248;DHT22;9758;48.640;8.148;2022-07-29T08:22:19;27.10;38.80
19248;DHT22;9758;48.640;8.148;2022-07-29T08:24:45;27.20;38.90
19248;DHT22;9758;48.640;8.148;2022-07-29T08:27:19;27.30;38.90
19248;DHT22;9758;48.640;8.148;2022-07-29T08:29:46;27.30;38.80
19248;DHT22;9758;48.640;8.148;2022-07-29T08:32:14;27.40;38.60
19248;DHT22;9758;48.640;8.148;2022-07-29T08:34:41;27.40;38.60
19248;DHT22;9758;48.640;8.148;2022-07-29T08:37:09;27.40;38.60
19248;DHT22;9758;48.640;8.148;2022-07-29T08:39:36;27.40;38.60
19248;DHT22;9758;48.640;8.148;2022-07-29T08:42:03;27.50;38.50
19248;DHT22;9758;48.640;8.148;2022-07-29T08:44:31;27.50;38.50
19248;DHT22;9758;48.640;8.148;2022-07-29T08:46:59;27.50;38.40
19248;DHT22;9758;48.640;8.148;2022-07-29T08:49:26;27.50;38.30
19248;DHT22;9758;48.640;8.148;2022-07-29T08:51:54;27.60;38.40
19248;DHT22;9758;48.640;8.148;2022-07-29T08:54:23;27.60;38.30
19248;DHT22;9758;48.640;8.148;2022-07-29T08:56:50;27.70;38.30
19248;DHT22;9758;48.640;8.148;2022-07-29T08:59:19;27.70;38.30
19248;DHT22;9758;48.640;8.148;2022-07-29T09:01:49;27.70;38.30
19248;DHT22;9758;48.640;8.148;2022-07-29T09:04:19;27.70;38.20
19248;DHT22;9758;48.640;8.148;2022-07-29T09:06:49;27.70;38.30
19248;DHT22;9758;48.640;8.148;2022-07-29T09:09:17;27.70;38.40
19248;DHT22;9758;48.640;8.148;2022-07-29T09:11:44;27.80;38.40
19248;DHT22;9758;48.640;8.148;2022-07-29T09:14:13;27.80;38.30
19248;DHT22;9758;48.640;8.148;2022-07-29T09:16:48;27.80;38.30
19248;DHT22;9758;48.640;8.148;2022-07-29T09:19:26;27.90;38.80
19248;DHT22;9758;48.640;8.148;2022-07-29T09:21:54;27.90;38.00
19248;DHT22;9758;48.640;8.148;2022-07-29T09:24:23;28.00;38.00
19248;DHT22;9758;48.640;8.148;2022-07-29T09:26:50;27.90;37.80
19248;DHT22;9758;48.640;8.148;2022-07-29T09:29:18;28.00;37.90
19248;DHT22;9758;48.640;8.148;2022-07-29T09:31:46;28.00;37.90
19248;DHT22;9758;48.640;8.148;2022-07-29T09:34:16;28.00;37.90
19248;DHT22;9758;48.640;8.148;2022-07-29T09:36:44;28.10;37.90
19248;DHT22;9758;48.640;8.148;2022-07-29T09:39:12;28.10;37.80
19248;DHT22;9758;48.640;8.148;2022-07-29T09:41:47;28.20;37.80
19248;DHT22;9758;48.640;8.148;2022-07-29T09:44:14;28.30;37.80
19248;DHT22;9758;48.640;8.148;2022-07-29T09:46:53;28.40;37.60
19248;DHT22;9758;48.640;8.148;2022-07-29T09:49:21;28.40;37.60
19248;DHT22;9758;48.640;8.148;2022-07-29T09:51:49;28.40;37.50
19248;DHT22;9758;48.640;8.148;2022-07-29T09:54:25;28.50;37.50
19248;DHT22;9758;48.640;8.148;2022-07-29T09:56:54;28.50;37.50
19248;DHT22;9758;48.640;8.148;2022-07-29T09:59:21;28.50;37.40
19248;DHT22;9758;48.640;8.148;2022-07-29T10:01:51;28.60;37.50
19248;DHT22;9758;48.640;8.148;2022-07-29T10:04:20;28.60;37.40
19248;DHT22;9758;48.640;8.148;2022-07-29T10:06:57;28.60;37.40
19248;DHT22;9758;48.640;8.148;2022-07-29T10:09:24;28.70;37.30
19248;DHT22;9758;48.640;8.148;2022-07-29T10:12:08;28.80;37.40
19248;DHT22;9758;48.640;8.148;2022-07-29T10:14:36;28.80;37.30
19248;DHT22;9758;48.640;8.148;2022-07-29T10:17:04;28.90;37.40
19248;DHT22;9758;48.640;8.148;2022-07-29T10:19:33;29.00;37.30
19248;DHT22;9758;48.640;8.148;2022-07-29T10:22:01;29.00;37.10
19248;DHT22;9758;48.640;8.148;2022-07-29T10:24:30;29.10;37.00
19248;DHT22;9758;48.640;8.148;2022-07-29T10:26:59;29.20;37.00
19248;DHT22;9758;48.640;8.148;2022-07-29T10:29:26;29.20;37.00
19248;DHT22;9758;48.640;8.148;2022-07-29T10:32:05;29.30;36.90
19248;DHT22;9758;48.640;8.148;2022-07-29T10:34:49;29.30;36.80
19248;DHT22;9758;48.640;8.148;2022-07-29T10:37:22;29.40;36.70
19248;DHT22;9758;48.640;8.148;2022-07-29T10:40:00;29.30;36.60
19248;DHT22;9758;48.640;8.148;2022-07-29T10:42:50;29.40;36.80
19248;DHT22;9758;48.640;8.148;2022-07-29T10:45:19;29.40;36.60
19248;DHT22;9758;48.640;8.148;2022-07-29T10:47:46;29.40;36.60
19248;DHT22;9758;48.640;8.148;2022-07-29T10:50:14;29.40;36.50
19248;DHT22;9758;48.640;8.148;2022-07-29T10:52:58;29.40;36.50
19248;DHT22;9758;48.640;8.148;2022-07-29T10:55:33;29.40;36.50
19248;DHT22;9758;48.640;8.148;2022-07-29T10:58:12;29.50;36.60
19248;DHT22;9758;48.640;8.148;2022-07-29T11:00:39;29.60;36.50
19248;DHT22;9758;48.640;8.148;2022-07-29T11:03:06;29.80;36.20
19248;DHT22;9758;48.640;8.148;2022-07-29T11:05:53;29.80;36.10
19248;DHT22;9758;48.640;8.148;2022-07-29T11:08:24;29.90;36.10
19248;DHT22;9758;48.640;8.148;2022-07-29T11:10:52;30.00;36.00
19248;DHT22;9758;48.640;8.148;2022-07-29T11:13:50;30.00;35.90
19248;DHT22;9758;48.640;8.148;2022-07-29T11:16:19;30.00;35.90
19248;DHT22;9758;48.640;8.148;2022-07-29T11:19:18;30.10;36.00
19248;DHT22;9758;48.640;8.148;2022-07-29T11:21:46;30.20;35.80
19248;DHT22;9758;48.640;8.148;2022-07-29T11:24:18;30.40;35.90
19248;DHT22;9758;48.640;8.148;2022-07-29T11:27:09;30.50;35.70
19248;DHT22;9758;48.640;8.148;2022-07-29T11:29:40;30.60;35.50
19248;DHT22;9758;48.640;8.148;2022-07-29T11:32:11;30.70;35.30
19248;DHT22;9758;48.640;8.148;2022-07-29T11:34:40;30.70;35.40
19248;DHT22;9758;48.640;8.148;2022-07-29T11:37:22;30.70;35.40
19248;DHT22;9758;48.640;8.148;2022-07-29T11:40:19;30.70;35.30
19248;DHT22;9758;48.640;8.148;2022-07-29T11:42:50;30.80;35.10
19248;DHT22;9758;48.640;8.148;2022-07-29T11:45:19;30.80;35.20
19248;DHT22;9758;48.640;8.148;2022-07-29T11:47:49;30.80;35.20
19248;DHT22;9758;48.640;8.148;2022-07-29T11:50:17;30.80;35.20
19248;DHT22;9758;48.640;8.148;2022-07-29T11:52:47;30.80;35.00
19248;DHT22;9758;48.640;8.148;2022-07-29T11:55:16;30.70;35.70
19248;DHT22;9758;48.640;8.148;2022-07-29T11:57:48;30.60;35.10
19248;DHT22;9758;48.640;8.148;2022-07-29T12:00:25;30.60;35.10
19248;DHT22;9758;48.640;8.148;2022-07-29T12:02:52;30.60;35.00
19248;DHT22;9758;48.640;8.148;2022-07-29T12:05:20;30.60;35.10
19248;DHT22;9758;48.640;8.148;2022-07-29T12:07:48;30.50;35.10
19248;DHT22;9758;48.640;8.148;2022-07-29T12:10:15;30.40;35.10
19248;DHT22;9758;48.640;8.148;2022-07-29T12:12:42;30.40;35.20
19248;DHT22;9758;48.640;8.148;2022-07-29T12:15:14;30.40;35.20
19248;DHT22;9758;48.640;8.148;2022-07-29T12:17:41;30.50;35.20
19248;DHT22;9758;48.640;8.148;2022-07-29T12:20:08;30.50;35.10
19248;DHT22;9758;48.640;8.148;2022-07-29T12:22:36;30.50;35.10
19248;DHT22;9758;48.640;8.148;2022-07-29T12:25:07;30.50;35.70
19248;DHT22;9758;48.640;8.148;2022-07-29T12:27:35;30.50;35.00
19248;DHT22;9758;48.640;8.148;2022-07-29T12:30:05;30.60;35.00
19248;DHT22;9758;48.640;8.148;2022-07-29T12:32:33;30.50;34.90
19248;DHT22;9758;48.640;8.148;2022-07-29T12:35:03;30.50;35.00
19248;DHT22;9758;48.640;8.148;2022-07-29T12:37:31;30.60;35.00
19248;DHT22;9758;48.640;8.148;2022-07-29T12:39:59;30.60;34.90
19248;DHT22;9758;48.640;8.148;2022-07-29T12:42:27;30.60;34.80
19248;DHT22;9758;48.640;8.148;2022-07-29T12:44:54;30.60;34.80
19248;DHT22;9758;48.640;8.148;2022-07-29T12:47:21;30.60;34.80
19248;DHT22;9758;48.640;8.148;2022-07-29T12:49:48;30.70;34.90
19248;DHT22;9758;48.640;8.148;2022-07-29T12:52:26;30.70;34.90
19248;DHT22;9758;48.640;8.148;2022-07-29T12:54:56;30.80;34.70
19248;DHT22;9758;48.640;8.148;2022-07-29T12:57:27;30.80;34.70
19248;DHT22;9758;48.640;8.148;2022-07-29T13:00:00;30.80;34.60
19248;DHT22;9758;48.640;8.148;2022-07-29T13:02:27;30.80;35.20
19248;DHT22;9758;48.640;8.148;2022-07-29T13:04:58;30.70;35.30
19248;DHT22;9758;48.640;8.148;2022-07-29T13:07:25;30.70;34.70
19248;DHT22;9758;48.640;8.148;2022-07-29T13:09:54;30.70;34.80
19248;DHT22;9758;48.640;8.148;2022-07-29T13:12:20;30.70;34.70
19248;DHT22;9758;48.640;8.148;2022-07-29T13:14:49;30.80;34.80
19248;DHT22;9758;48.640;8.148;2022-07-29T13:17:17;30.80;34.60
19248;DHT22;9758;48.640;8.148;2022-07-29T13:19:47;30.90;34.70
19248;DHT22;9758;48.640;8.148;2022-07-29T13:22:17;30.90;34.50
19248;DHT22;9758;48.640;8.148;2022-07-29T13:24:49;30.90;34.50
19248;DHT22;9758;48.640;8.148;2022-07-29T13:27:16;31.00;34.50
19248;DHT22;9758;48.640;8.148;2022-07-29T13:29:43;31.00;34.40
19248;DHT22;9758;48.640;8.148;2022-07-29T13:32:12;31.10;34.50
19248;DHT22;9758;48.640;8.148;2022-07-29T13:34:39;31.10;34.40
19248;DHT22;9758;48.640;8.148;2022-07-29T13:37:06;31.10;34.40
19248;DHT22;9758;48.640;8.148;2022-07-29T13:39:33;31.00;34.20
19248;DHT22;9758;48.640;8.148;2022-07-29T13:42:00;31.00;34.20
19248;DHT22;9758;48.640;8.148;2022-07-29T13:44:27;31.00;34.80
19248;DHT22;9758;48.640;8.148;2022-07-29T13:46:54;30.90;34.20
19248;DHT22;9758;48.640;8.148;2022-07-29T13:49:22;30.80;34.30
19248;DHT22;9758;48.640;8.148;2022-07-29T13:51:49;30.80;34.40
19248;DHT22;9758;48.640;8.148;2022-07-29T13:54:16;30.80;34.40
19248;DHT22;9758;48.640;8.148;2022-07-29T13:56:43;30.90;34.40
19248;DHT22;9758;48.640;8.148;2022-07-29T13:59:09;30.90;34.40
19248;DHT22;9758;48.640;8.148;2022-07-29T14:01:36;30.90;34.40
19248;DHT22;9758;48.640;8.148;2022-07-29T14:04:04;31.00;34.30
19248;DHT22;9758;48.640;8.148;2022-07-29T14:06:32;31.10;34.20
19248;DHT22;9758;48.640;8.148;2022-07-29T14:08:59;31.10;34.20
19248;DHT22;9758;48.640;8.148;2022-07-29T14:11:26;31.10;34.20
19248;DHT22;9758;48.640;8.148;2022-07-29T14:13:53;31.00;34.10
19248;DHT22;9758;48.640;8.148;2022-07-29T14:16:20;31.00;34.10
19248;DHT22;9758;48.640;8.148;2022-07-29T14:18:46;31.10;34.20
19248;DHT22;9758;48.640;8.148;2022-07-29T14:21:13;31.10;34.20
19248;DHT22;9758;48.640;8.148;2022-07-29T14:23:41;31.00;34.10
19248;DHT22;9758;48.640;8.148;2022-07-29T14:26:08;31.00;34.10
19248;DHT22;9758;48.640;8.148;2022-07-29T14:28:35;31.00;33.90
19248;DHT22;9758;48.640;8.148;2022-07-29T14:31:01;30.90;34.00
19248;DHT22;9758;48.640;8.148;2022-07-29T14:33:28;30.90;34.10
19248;DHT22;9758;48.640;8.148;2022-07-29T14:35:55;30.90;34.10
19248;DHT22;9758;48.640;8.148;2022-07-29T14:38:22;30.90;34.70
19248;DHT22;9758;48.640;8.148;2022-07-29T14:40:50;31.00;34.10
19248;DHT22;9758;48.640;8.148;2022-07-29T14:43:17;31.00;34.10
19248;DHT22;9758;48.640;8.148;2022-07-29T14:45:44;31.00;34.00
19248;DHT22;9758;48.640;8.148;2022-07-29T14:48:10;31.10;34.00
19248;DHT22;9758;48.640;8.148;2022-07-29T14:50:37;31.10;33.80
19248;DHT22;9758;48.640;8.148;2022-07-29T14:53:04;31.10;33.80
19248;DHT22;9758;48.640;8.148;2022-07-29T14:55:31;31.10;33.30
19248;DHT22;9758;48.640;8.148;2022-07-29T14:57:59;31.00;33.60
19248;DHT22;9758;48.640;8.148;2022-07-29T15:00:26;30.90;33.90
19248;DHT22;9758;48.640;8.148;2022-07-29T15:02:53;30.90;33.90
19248;DHT22;9758;48.640;8.148;2022-07-29T15:05:19;30.90;33.90
19248;DHT22;9758;48.640;8.148;2022-07-29T15:07:46;30.90;33.80
19248;DHT22;9758;48.640;8.148;2022-07-29T15:10:13;30.90;33.90
19248;DHT22;9758;48.640;8.148;2022-07-29T15:12:39;30.80;34.00
19248;DHT22;9758;48.640;8.148;2022-07-29T15:15:08;30.90;34.10
19248;DHT22;9758;48.640;8.148;2022-07-29T15:17:35;31.00;33.80
19248;DHT22;9758;48.640;8.148;2022-07-29T15:20:02;31.00;33.90
19248;DHT22;9758;48.640;8.148;2022-07-29T15:22:29;31.10;34.00
19248;DHT22;9758;48.640;8.148;2022-07-29T15:24:56;31.20;33.80
19248;DHT22;9758;48.640;8.148;2022-07-29T15:27:36;31.30;33.70
19248;DHT22;9758;48.640;8.148;2022-07-29T15:30:03;31.40;33.40
19248;DHT22;9758;48.640;8.148;2022-07-29T15:32:31;31.40;33.50
19248;DHT22;9758;48.640;8.148;2022-07-29T15:34:58;31.40;33.60
19248;DHT22;9758;48.640;8.148;2022-07-29T15:37:25;31.50;33.60
19248;DHT22;9758;48.640;8.148;2022-07-29T15:39:53;31.70;33.60
19248;DHT22;9758;48.640;8.148;2022-07-29T15:42:20;32.00;33.40
19248;DHT22;9758;48.640;8.148;2022-07-29T15:44:47;32.20;33.30
19248;DHT22;9758;48.640;8.148;2022-07-29T15:50:48;32.70;32.70
19248;DHT22;9758;48.640;8.148;2022-07-29T15:53:14;32.80;32.70
19248;DHT22;9758;48.640;8.148;2022-07-29T15:55:41;32.90;33.30
19248;DHT22;9758;48.640;8.148;2022-07-29T15:58:08;33.10;32.70
19248;DHT22;9758;48.640;8.148;2022-07-29T16:00:34;33.30;32.70